This is the latest recevied weather packets stored in our database for station/object W7PJH-3. If no packets are shown the sender has not sent any weather packets the latest 10 day(s).
| Time | Temp. | Humidity | Pressure | Rain* | Wind** | Luminosity | Snow |
|---|---|---|---|---|---|---|---|
| 1787601742 | 101° F | 25% | 757.2 mmHg | 0 in | - | - | - |
| 1787601611 | 101° F | 25% | 757.2 mmHg | 0 in | - | - | - |
| 1787598075 | 100° F | 27% | 758 mmHg | 0 in | - | - | - |
| 1787598010 | 100° F | 27% | 758 mmHg | 0 in | - | - | - |
| 1787594507 | 95° F | 30% | 759.6 mmHg | 0 in | - | - | - |
| 1787594410 | 95° F | 30% | 759.6 mmHg | 0 in | - | - | - |
| 1787590874 | 91° F | 36% | 760.7 mmHg | 0 in | - | - | - |
| 1787590810 | 91° F | 36% | 760.7 mmHg | 0 in | - | - | - |
| 1787587273 | 88° F | 42% | 761.3 mmHg | 0 in | - | - | - |
| 1787587210 | 88° F | 42% | 761.3 mmHg | 0 in | - | - | - |
| 1787583690 | 84° F | 45% | 761.6 mmHg | 0 in | - | - | - |
| 1787583611 | 84° F | 45% | 761.6 mmHg | 0 in | - | - | - |
| 1787580165 | 81° F | 48% | 761.5 mmHg | 0 in | - | - | - |
| 1787580009 | 81° F | 48% | 761.5 mmHg | 0 in | - | - | - |
| 1787576668 | 77° F | 53% | 760.9 mmHg | 0 in | - | - | - |
| 1787576410 | 77° F | 53% | 760.9 mmHg | 0 in | - | - | - |
| 1787572969 | 78° F | 51% | 760.6 mmHg | 0 in | - | - | - |
| 1787572810 | 78° F | 51% | 760.6 mmHg | 0 in | - | - | - |
| 1787569365 | 79° F | 49% | 760.5 mmHg | 0 in | - | - | - |
| 1787569210 | 79° F | 49% | 760.5 mmHg | 0 in | - | - | - |
| 1787565770 | 81° F | 47% | 760.1 mmHg | 0 in | - | - | - |
| 1787565609 | 81° F | 47% | 760.1 mmHg | 0 in | - | - | - |
| 1787562267 | 82° F | 44% | 759.7 mmHg | 0 in | - | - | - |
| 1787562206 | 82° F | 44% | 759.7 mmHg | 0 in | - | - | - |
| 1787562010 | 82° F | 44% | 759.7 mmHg | 0 in | - | - | - |
* Rain latest hour (hover to see other rain measurements)
** Current wind speed in m/s (hover to see current wind gust speed)